Jesenik, Czech Republic
Current Conditions -  °F | °C
As of 1:30 PM on Monday 20 Oct 2014 (Local Time) from LKMT Reporting Station
Few Clouds Few Clouds  
Wind Chill: 59°   Ceiling: Unl
Heat Index: 59°   Visibility: 6mi
Dew Point: 55°   Wind: 18mph
Humidity: 88%   Direction: 220°SW
Pressure: 29.97"   Gusts: NA
Location:  50.23°N, 17.2°E
Report Text: LKMT 201130Z 22016KT 9999 FEW040 15/13 Q1015 NOSIG
Loading
Personal Weather Stations






























Interactive Weather Map
Tropical Storm Tracking
New forecast layout! Learn more

10-Day Weather Forecast

Advertisements
Track Severe Weather on mobile